createdAt,value
2023-05-11T00:02:16.773Z,101490.88
2023-05-11T00:04:44.957Z,101484.75
2023-05-11T00:07:12.942Z,101483.88
2023-05-11T00:09:41.776Z,101491.78
2023-05-11T00:12:09.719Z,101490.06
2023-05-11T00:14:37.664Z,101492.69
2023-05-11T00:17:06.062Z,101487.44
2023-05-11T00:19:35.518Z,101481.22
2023-05-11T00:22:03.690Z,101489.94
2023-05-11T00:24:31.625Z,101489.09
2023-05-11T00:26:59.593Z,101489.94
2023-05-11T00:29:27.547Z,101487.34
2023-05-11T00:31:55.627Z,101486.50
2023-05-11T00:34:25.382Z,101483.00
2023-05-11T00:36:54.675Z,101494.41
2023-05-11T00:39:22.613Z,101485.66
2023-05-11T00:41:50.487Z,101491.81
2023-05-11T00:44:18.429Z,101491.78
2023-05-11T00:46:46.381Z,101488.28
2023-05-11T00:49:17.192Z,101487.47
2023-05-11T00:51:45.135Z,101486.59
2023-05-11T00:54:15.797Z,101496.28
2023-05-11T00:56:43.698Z,101498.00
2023-05-11T00:59:11.662Z,101502.38
2023-05-11T01:01:39.736Z,101510.25
2023-05-11T01:04:07.751Z,101504.19
2023-05-11T01:06:42.601Z,101504.19
2023-05-11T01:09:13.088Z,101503.31
2023-05-11T01:11:44.435Z,101513.84
2023-05-11T01:14:15.170Z,101498.13
2023-05-11T01:16:43.529Z,101506.88
2023-05-11T01:19:13.868Z,101498.13
2023-05-11T01:21:41.768Z,101502.50
2023-05-11T01:24:28.021Z,101495.50
2023-05-11T01:27:13.666Z,101498.97
2023-05-11T01:30:16.827Z,101501.53
2023-05-11T01:32:46.354Z,101499.69
2023-05-11T01:35:19.044Z,101503.22
2023-05-11T01:37:49.080Z,101502.31
2023-05-11T01:40:18.281Z,101510.19
2023-05-11T01:42:47.228Z,101508.50
2023-05-11T01:45:15.136Z,101513.81
2023-05-11T01:47:43.413Z,101519.16
2023-05-11T01:50:12.934Z,101513.97
2023-05-11T01:52:40.959Z,101510.44
2023-05-11T01:55:09.636Z,101514.88
2023-05-11T01:57:38.171Z,101522.75
2023-05-11T02:00:07.375Z,101520.16
2023-05-11T02:02:35.352Z,101516.63
2023-05-11T02:05:03.395Z,101526.31
2023-05-11T02:07:32.831Z,101529.78
2023-05-11T02:10:00.757Z,101528.09
2023-05-11T02:12:28.707Z,101529.84
2023-05-11T02:14:56.667Z,101529.84
2023-05-11T02:17:24.638Z,101528.09
2023-05-11T02:19:52.663Z,101533.38
2023-05-11T02:22:20.611Z,101531.63
2023-05-11T02:24:49.924Z,101535.19
2023-05-11T02:27:17.895Z,101534.28
2023-05-11T02:29:46.489Z,101536.03
2023-05-11T02:32:16.956Z,101540.44
2023-05-11T02:34:45.483Z,101538.72
2023-05-11T02:37:15.361Z,101536.91
2023-05-11T02:39:45.419Z,101540.31
2023-05-11T02:42:16.187Z,101536.88
2023-05-11T02:44:46.842Z,101542.97
2023-05-11T02:47:15.051Z,101542.97
2023-05-11T02:49:43.149Z,101541.25
2023-05-11T02:52:11.115Z,101543.84
2023-05-11T02:54:39.018Z,101546.50
2023-05-11T02:57:09.656Z,101546.38
2023-05-11T02:59:39.026Z,101548.13
2023-05-11T03:02:12.698Z,101555.13
2023-05-11T03:04:40.645Z,101556.97
2023-05-11T03:07:08.519Z,101549.97
2023-05-11T03:09:42.257Z,101561.38
2023-05-11T03:12:10.198Z,101562.28
2023-05-11T03:14:42.632Z,101557.88
2023-05-11T03:17:10.581Z,101557.88
2023-05-11T03:19:38.563Z,101555.25
2023-05-11T03:22:06.734Z,101552.63
2023-05-11T03:24:34.632Z,101557.91
2023-05-11T03:27:03.741Z,101545.63
2023-05-11T03:29:32.145Z,101552.63
2023-05-11T03:32:01.490Z,101551.75
2023-05-11T03:34:29.764Z,101547.41
2023-05-11T03:36:57.719Z,101557.97
2023-05-11T03:39:25.659Z,101547.47
2023-05-11T03:41:53.575Z,101551.00
2023-05-11T03:44:21.490Z,101548.38
2023-05-11T03:46:50.495Z,101548.34
2023-05-11T03:49:19.858Z,101549.22
2023-05-11T03:51:47.820Z,101548.34
2023-05-11T03:54:15.709Z,101546.59
2023-05-11T03:56:43.615Z,101550.09
2023-05-11T03:59:15.040Z,101550.09
2023-05-11T04:01:43.375Z,101553.63
2023-05-11T04:04:12.202Z,101549.22
2023-05-11T04:06:41.682Z,101544.81
2023-05-11T04:09:09.643Z,101557.13
2023-05-11T04:11:38.117Z,101551.84
2023-05-11T04:14:06.033Z,101555.34
2023-05-11T04:16:34.010Z,101552.75
2023-05-11T04:19:02.347Z,101550.16
2023-05-11T04:21:30.704Z,101551.03
2023-05-11T04:24:00.136Z,101548.47
2023-05-11T04:26:28.053Z,101547.59
2023-05-11T04:28:55.979Z,101553.78
2023-05-11T04:31:23.972Z,101549.38
2023-05-11T04:33:52.117Z,101552.00
2023-05-11T04:36:22.294Z,101549.44
2023-05-11T04:38:50.132Z,101545.91
2023-05-11T04:41:22.474Z,101550.28
2023-05-11T04:43:50.418Z,101556.44
2023-05-11T04:46:18.845Z,101557.31
2023-05-11T04:48:46.767Z,101556.47
2023-05-11T04:51:14.615Z,101553.00
2023-05-11T04:53:42.646Z,101554.75
2023-05-11T04:56:10.800Z,101566.06
2023-05-11T04:58:40.118Z,101564.34
2023-05-11T05:01:08.121Z,101562.56
2023-05-11T05:03:36.094Z,101562.50
2023-05-11T05:06:03.988Z,101572.19
2023-05-11T05:08:31.916Z,101567.88
2023-05-11T05:10:59.852Z,101566.13
2023-05-11T05:13:27.806Z,101567.06
2023-05-11T05:15:57.097Z,101567.94
2023-05-11T05:18:25.189Z,101567.06
2023-05-11T05:20:53.122Z,101573.22
2023-05-11T05:23:20.977Z,101578.41
2023-05-11T05:25:52.058Z,101574.84
2023-05-11T05:28:20.278Z,101578.28
2023-05-11T05:30:48.204Z,101580.06
2023-05-11T05:33:17.527Z,101577.41
2023-05-11T05:35:46.824Z,101573.88
2023-05-11T05:38:15.229Z,101573.88
2023-05-11T05:40:43.208Z,101579.13
2023-05-11T05:43:11.328Z,101584.41
2023-05-11T05:45:39.259Z,101584.34
2023-05-11T05:48:09.781Z,101586.09
2023-05-11T05:50:39.282Z,101588.66
2023-05-11T05:53:07.931Z,101593.00
2023-05-11T05:55:35.987Z,101593.88
2023-05-11T05:58:04.010Z,101600.03
2023-05-11T06:00:31.984Z,101599.19
2023-05-11T06:03:02.787Z,101604.38
2023-05-11T06:05:30.881Z,101604.31
2023-05-11T06:08:09.711Z,101606.03
2023-05-11T06:10:39.146Z,101617.44
2023-05-11T06:13:08.167Z,101614.78
2023-05-11T06:15:36.217Z,101611.25
2023-05-11T06:18:04.343Z,101615.63
2023-05-11T06:20:32.935Z,101619.09
2023-05-11T06:23:02.208Z,101614.69
2023-05-11T06:25:30.148Z,101620.84
2023-05-11T06:27:58.039Z,101618.22
2023-05-11T06:30:26.004Z,101609.28
2023-05-11T06:32:54.004Z,101614.47
2023-05-11T06:35:22.674Z,101610.09
2023-05-11T06:37:50.617Z,101617.94
2023-05-11T06:40:20.226Z,101615.38
2023-05-11T06:42:48.377Z,101614.50
2023-05-11T06:45:16.583Z,101617.13
2023-05-11T06:47:44.600Z,101615.38
2023-05-11T06:50:12.673Z,101615.38
2023-05-11T06:52:40.605Z,101613.56
2023-05-11T06:55:09.431Z,101614.47
2023-05-11T06:57:38.876Z,101610.97
2023-05-11T07:00:08.284Z,101604.84
2023-05-11T07:02:36.433Z,101613.53
2023-05-11T07:05:04.720Z,101615.28
2023-05-11T07:07:32.900Z,101623.19
2023-05-11T07:10:01.061Z,101623.19
2023-05-11T07:12:28.992Z,101616.16
2023-05-11T07:14:58.372Z,101617.91
2023-05-11T07:17:26.425Z,101628.44
2023-05-11T07:19:57.217Z,101628.41
2023-05-11T07:22:25.160Z,101625.75
2023-05-11T07:24:53.171Z,101631.03
2023-05-11T07:27:21.180Z,101623.09
2023-05-11T07:29:49.112Z,101625.75
2023-05-11T07:32:18.455Z,101625.75
2023-05-11T07:34:46.368Z,101631.84
2023-05-11T07:37:14.328Z,101630.97
2023-05-11T07:39:42.268Z,101630.13
2023-05-11T07:42:10.222Z,101638.00
2023-05-11T07:44:38.178Z,101630.97
2023-05-11T07:47:06.303Z,101644.94
2023-05-11T07:49:43.468Z,101637.97
2023-05-11T07:52:12.249Z,101643.22
2023-05-11T07:54:40.962Z,101652.03
2023-05-11T07:57:09.021Z,101651.16
2023-05-11T07:59:37.267Z,101650.25
2023-05-11T08:02:05.914Z,101655.53
2023-05-11T08:04:36.216Z,101658.16
2023-05-11T08:07:04.379Z,101656.41
2023-05-11T08:09:32.360Z,101660.78
2023-05-11T08:12:01.694Z,101666.94
2023-05-11T08:14:29.710Z,101668.66
2023-05-11T08:16:57.690Z,101666.03
2023-05-11T08:19:25.661Z,101662.53
2023-05-11T08:21:55.075Z,101665.19
2023-05-11T08:24:22.992Z,101664.31
2023-05-11T08:26:50.939Z,101665.19
2023-05-11T08:29:18.893Z,101666.91
2023-05-11T08:31:46.905Z,101666.00
2023-05-11T08:34:19.576Z,101672.16
2023-05-11T08:36:48.190Z,101661.63
2023-05-11T08:39:28.575Z,101665.06
2023-05-11T08:42:07.054Z,101667.69
2023-05-11T08:44:37.789Z,101673.81
2023-05-11T08:47:21.799Z,101676.44
2023-05-11T08:49:53.209Z,101673.81
2023-05-11T08:52:21.611Z,101674.69
2023-05-11T08:54:51.095Z,101667.69
2023-05-11T08:57:19.002Z,101669.41
2023-05-11T08:59:47.072Z,101669.41
2023-05-11T09:02:17.995Z,101677.31
2023-05-11T09:04:48.225Z,101675.56
2023-05-11T09:07:17.661Z,101675.56
2023-05-11T09:09:46.301Z,101672.94
2023-05-11T09:12:15.641Z,101676.47
2023-05-11T09:14:43.854Z,101678.22
2023-05-11T09:17:12.137Z,101678.16
2023-05-11T09:19:44.775Z,101685.16
2023-05-11T09:22:12.726Z,101686.88
2023-05-11T09:24:43.647Z,101675.50
2023-05-11T09:27:11.677Z,101681.63
2023-05-11T09:29:41.053Z,101684.25
2023-05-11T09:32:09.062Z,101676.34
2023-05-11T09:34:43.105Z,101673.72
2023-05-11T09:37:17.632Z,101679.88
2023-05-11T09:40:13.996Z,101681.56
2023-05-11T09:42:33.490Z,101678.94
2023-05-11T09:45:02.817Z,101681.53
2023-05-11T09:47:33.184Z,101680.66
2023-05-11T09:50:01.374Z,101683.22
2023-05-11T09:52:29.394Z,101678.75
2023-05-11T09:54:57.354Z,101683.09
2023-05-11T09:57:26.321Z,101682.19
2023-05-11T09:59:54.483Z,101689.16
2023-05-11T10:02:24.976Z,101681.28
2023-05-11T10:04:54.297Z,101679.53
2023-05-11T10:07:29.123Z,101679.56
2023-05-11T10:09:57.938Z,101679.53
2023-05-11T10:12:27.328Z,101673.31
2023-05-11T10:14:56.784Z,101666.25
2023-05-11T10:17:26.251Z,101668.88
2023-05-11T10:19:55.772Z,101672.34
2023-05-11T10:22:23.866Z,101662.75
2023-05-11T10:24:51.875Z,101664.50
2023-05-11T10:27:19.971Z,101666.25
2023-05-11T10:29:48.117Z,101674.09
2023-05-11T10:32:16.874Z,101670.50
2023-05-11T10:34:46.594Z,101673.94
2023-05-11T10:37:14.688Z,101669.53
2023-05-11T10:39:42.720Z,101672.13
2023-05-11T10:42:19.939Z,101673.75
2023-05-11T10:45:01.519Z,101671.97
2023-05-11T10:47:55.390Z,101669.25
2023-05-11T10:50:53.328Z,101676.19
2023-05-11T10:53:46.371Z,101672.69
2023-05-11T10:56:27.905Z,101671.03
2023-05-11T10:59:07.596Z,101682.50
2023-05-11T11:01:39.532Z,101677.22
2023-05-11T11:04:08.375Z,101674.47
2023-05-11T11:06:38.886Z,101674.47
2023-05-11T11:09:08.052Z,101673.53
2023-05-11T11:11:39.099Z,101669.09
2023-05-11T11:14:09.463Z,101675.16
2023-05-11T11:16:37.679Z,101668.00
2023-05-11T11:19:36.638Z,101668.81
2023-05-11T11:22:06.344Z,101671.41
2023-05-11T11:24:45.920Z,101667.88
2023-05-11T11:27:13.853Z,101672.28
2023-05-11T11:29:41.947Z,101671.34
2023-05-11T11:32:28.735Z,101675.63
2023-05-11T11:34:56.765Z,101672.88
2023-05-11T11:37:26.068Z,101667.56
2023-05-11T11:40:14.036Z,101675.41
2023-05-11T11:42:44.254Z,101673.59
2023-05-11T11:45:32.642Z,101681.50
2023-05-11T11:48:11.388Z,101669.22
2023-05-11T11:50:39.995Z,101671.81
2023-05-11T11:53:12.894Z,101677.03
2023-05-11T11:55:50.243Z,101683.19
2023-05-11T11:58:55.778Z,101683.97
2023-05-11T12:01:25.901Z,101678.72
2023-05-11T12:04:42.044Z,101676.97
2023-05-11T12:07:11.569Z,101685.78
2023-05-11T12:09:43.829Z,101685.81
2023-05-11T12:12:12.580Z,101683.19
2023-05-11T12:14:42.041Z,101680.50
2023-05-11T12:17:15.397Z,101683.97
2023-05-11T12:19:46.611Z,101675.13
2023-05-11T12:22:16.519Z,101679.44
2023-05-11T12:24:45.879Z,101674.06
2023-05-11T12:27:14.306Z,101677.50
2023-05-11T12:29:42.526Z,101672.22
2023-05-11T12:32:13.698Z,101677.50
2023-05-11T12:34:41.895Z,101674.84
2023-05-11T12:37:09.850Z,101672.19
2023-05-11T12:39:37.778Z,101678.34
2023-05-11T12:42:07.665Z,101674.84
2023-05-11T12:44:35.660Z,101677.50
2023-05-11T12:47:03.728Z,101673.06
2023-05-11T12:49:31.664Z,101670.34
2023-05-11T12:52:06.137Z,101670.22
2023-05-11T12:54:34.698Z,101672.66
2023-05-11T12:57:03.255Z,101673.38
2023-05-11T12:59:34.389Z,101673.22
2023-05-11T13:02:13.052Z,101668.75
2023-05-11T13:04:42.514Z,101668.75
2023-05-11T13:07:10.510Z,101671.44
2023-05-11T13:09:38.514Z,101659.16
2023-05-11T13:12:14.779Z,101675.03
2023-05-11T13:14:44.377Z,101658.34
2023-05-11T13:17:12.339Z,101667.09
2023-05-11T13:19:40.821Z,101666.09
2023-05-11T13:22:09.137Z,101657.16
2023-05-11T13:24:37.296Z,101652.59
2023-05-11T13:27:05.697Z,101653.34
2023-05-11T13:29:34.058Z,101651.47
2023-05-11T13:32:03.655Z,101650.44
2023-05-11T13:34:31.655Z,101650.34
2023-05-11T13:36:59.786Z,101650.25
2023-05-11T13:39:27.745Z,101643.19
2023-05-11T13:41:56.189Z,101645.00
2023-05-11T13:44:24.261Z,101640.56
2023-05-11T13:46:52.230Z,101653.84
2023-05-11T13:49:21.793Z,101640.69
2023-05-11T13:51:49.806Z,101644.25
2023-05-11T13:54:17.732Z,101623.97
2023-05-11T13:56:45.746Z,101632.72
2023-05-11T13:59:13.767Z,101637.13
2023-05-11T14:01:41.985Z,101622.25
2023-05-11T14:04:09.984Z,101627.56
2023-05-11T14:06:39.272Z,101621.41
2023-05-11T14:09:07.221Z,101626.59
2023-05-11T14:11:36.391Z,101618.53
2023-05-11T14:14:06.096Z,101620.22
2023-05-11T14:16:34.074Z,101630.81
2023-05-11T14:19:02.088Z,101623.91
2023-05-11T14:21:30.126Z,101628.34
2023-05-11T14:24:10.853Z,101627.34
2023-05-11T14:26:40.490Z,101620.97
2023-05-11T14:29:08.515Z,101620.00
2023-05-11T14:31:37.088Z,101622.75
2023-05-11T14:34:05.259Z,101619.13
2023-05-11T14:36:33.470Z,101619.72
2023-05-11T14:39:02.794Z,101619.69
2023-05-11T14:41:31.380Z,101606.59
2023-05-11T14:43:59.325Z,101618.28
2023-05-11T14:46:27.457Z,101610.56
2023-05-11T14:48:55.481Z,101614.16
2023-05-11T14:51:23.436Z,101608.97
2023-05-11T14:53:51.858Z,101609.75
2023-05-11T14:56:22.113Z,101604.31
2023-05-11T14:58:50.215Z,101610.41
2023-05-11T15:01:18.290Z,101603.28
2023-05-11T15:03:46.384Z,101602.56
2023-05-11T15:06:21.019Z,101602.78
2023-05-11T15:08:49.247Z,101602.09
2023-05-11T15:11:17.239Z,101599.47
2023-05-11T15:13:48.432Z,101601.34
2023-05-11T15:16:16.505Z,101600.47
2023-05-11T15:18:44.575Z,101608.34
2023-05-11T15:21:12.530Z,101609.16
2023-05-11T15:23:40.823Z,101605.75
2023-05-11T15:26:08.794Z,101607.66
2023-05-11T15:28:36.723Z,101608.66
2023-05-11T15:31:06.159Z,101610.53
2023-05-11T15:33:34.307Z,101609.63
2023-05-11T15:36:02.286Z,101609.47
2023-05-11T15:38:30.411Z,101615.53
2023-05-11T15:40:58.354Z,101628.75
2023-05-11T15:43:26.312Z,101625.19
2023-05-11T15:45:55.385Z,101619.47
2023-05-11T15:48:24.730Z,101613.97
2023-05-11T15:50:52.776Z,101618.38
2023-05-11T15:53:20.755Z,101618.28
2023-05-11T15:55:50.915Z,101610.25
2023-05-11T15:58:19.008Z,101611.72
2023-05-11T16:00:46.973Z,101615.06
2023-05-11T16:03:15.072Z,101611.53
2023-05-11T16:05:44.697Z,101608.13
2023-05-11T16:08:12.699Z,101615.25
2023-05-11T16:10:40.650Z,101613.44
2023-05-11T16:13:09.145Z,101612.66
2023-05-11T16:15:37.059Z,101605.78
2023-05-11T16:18:05.597Z,101600.56
2023-05-11T16:20:33.612Z,101607.59
2023-05-11T16:23:03.007Z,101604.94
2023-05-11T16:25:30.999Z,101606.78
2023-05-11T16:27:58.937Z,101609.47
2023-05-11T16:30:27.316Z,101609.50
2023-05-11T16:32:55.492Z,101602.53
2023-05-11T16:35:23.507Z,101610.47
2023-05-11T16:37:51.462Z,101608.75
2023-05-11T16:40:21.242Z,101599.94
2023-05-11T16:42:49.552Z,101608.69
2023-05-11T16:45:17.702Z,101602.53
2023-05-11T16:47:46.332Z,101607.84
2023-05-11T16:50:16.257Z,101606.09
2023-05-11T16:52:44.715Z,101606.16
2023-05-11T16:55:12.696Z,101610.47
2023-05-11T16:57:42.041Z,101608.72
2023-05-11T17:00:10.760Z,101600.75
2023-05-11T17:02:38.752Z,101602.38
2023-05-11T17:05:08.138Z,101600.56
2023-05-11T17:07:36.159Z,101603.22
2023-05-11T17:10:04.249Z,101602.34
2023-05-11T17:12:35.724Z,101610.22
2023-05-11T17:15:09.601Z,101603.16
2023-05-11T17:17:38.288Z,101604.66
2023-05-11T17:20:07.806Z,101605.38
2023-05-11T17:22:35.850Z,101600.91
2023-05-11T17:25:04.053Z,101599.84
2023-05-11T17:27:32.130Z,101594.44
2023-05-11T17:30:00.158Z,101594.28
2023-05-11T17:32:29.700Z,101599.41
2023-05-11T17:34:57.827Z,101591.44
2023-05-11T17:37:31.834Z,101596.75
2023-05-11T17:40:01.170Z,101598.56
2023-05-11T17:42:29.453Z,101595.34
2023-05-11T17:44:57.456Z,101601.72
2023-05-11T17:47:26.153Z,101597.47
2023-05-11T17:49:55.837Z,101596.72
2023-05-11T17:52:24.586Z,101602.09
2023-05-11T17:54:52.569Z,101595.00
2023-05-11T17:57:20.629Z,101602.84
2023-05-11T17:59:48.625Z,101601.16
2023-05-11T18:02:17.219Z,101602.09
2023-05-11T18:04:45.277Z,101603.91
2023-05-11T18:07:14.660Z,101607.59
2023-05-11T18:09:42.729Z,101603.28
2023-05-11T18:12:11.794Z,101607.78
2023-05-11T18:14:39.770Z,101614.81
2023-05-11T18:17:07.720Z,101612.22
2023-05-11T18:19:35.731Z,101613.13
2023-05-11T18:22:04.415Z,101610.53
2023-05-11T18:24:33.736Z,101610.56
2023-05-11T18:27:05.189Z,101613.19
2023-05-11T18:29:33.372Z,101615.84
2023-05-11T18:32:01.398Z,101613.28
2023-05-11T18:34:29.389Z,101608.91
2023-05-11T18:36:57.406Z,101619.56
2023-05-11T18:39:25.337Z,101633.75
2023-05-11T18:41:54.774Z,101624.19
2023-05-11T18:44:22.790Z,101628.66
2023-05-11T18:46:50.934Z,101625.19
2023-05-11T18:49:19.015Z,101627.06
2023-05-11T18:51:47.373Z,101618.38
2023-05-11T18:54:15.326Z,101624.63
2023-05-11T18:56:43.291Z,101623.78
2023-05-11T18:59:12.629Z,101631.81
2023-05-11T19:04:16.464Z,101627.56
2023-05-11T19:06:44.387Z,101637.28
2023-05-11T19:09:14.343Z,101634.72
2023-05-11T19:11:43.040Z,101636.56
2023-05-11T19:14:14.698Z,101637.44
2023-05-11T19:16:42.822Z,101644.53
2023-05-11T19:19:13.887Z,101650.75
2023-05-11T19:21:43.348Z,101646.34
2023-05-11T19:24:11.398Z,101648.19
2023-05-11T19:26:39.364Z,101649.13
2023-05-11T19:29:08.162Z,101654.47
2023-05-11T19:31:37.569Z,101655.38
2023-05-11T19:34:07.243Z,101654.53
2023-05-11T19:36:35.368Z,101651.06
2023-05-11T19:39:04.524Z,101648.47
2023-05-11T19:41:33.242Z,101654.66
2023-05-11T19:44:01.769Z,101649.41
2023-05-11T19:46:29.955Z,101660.88
2023-05-11T19:48:59.392Z,101652.97
2023-05-11T19:51:30.206Z,101655.66
2023-05-11T19:53:58.123Z,101642.50
2023-05-11T19:56:29.412Z,101653.06
2023-05-11T19:58:57.468Z,101654.91
2023-05-11T20:01:25.473Z,101657.53
2023-05-11T20:03:53.638Z,101662.84
2023-05-11T20:06:23.376Z,101657.59
2023-05-11T20:08:54.337Z,101663.78
2023-05-11T20:11:22.606Z,101661.16
2023-05-11T20:13:51.139Z,101664.72
2023-05-11T20:16:19.220Z,101661.19
2023-05-11T20:18:47.430Z,101664.75
2023-05-11T20:21:15.750Z,101668.25
2023-05-11T20:23:45.285Z,101667.41
2023-05-11T20:26:13.670Z,101666.56
2023-05-11T20:28:41.689Z,101668.31
2023-05-11T20:31:11.072Z,101670.97
2023-05-11T20:36:10.654Z,101668.38
2023-05-11T20:38:38.618Z,101673.69
2023-05-11T20:41:08.546Z,101674.53
2023-05-11T20:43:36.592Z,101669.28
2023-05-11T20:46:04.917Z,101673.69
2023-05-11T20:48:40.401Z,101673.69
2023-05-11T20:51:09.352Z,101683.38
2023-05-11T20:53:37.343Z,101691.31
2023-05-11T20:56:05.382Z,101688.72
2023-05-11T20:58:34.793Z,101714.22
2023-05-11T21:01:02.758Z,101723.91
2023-05-11T21:03:30.877Z,101711.63
2023-05-11T21:05:58.948Z,101708.19
2023-05-11T21:08:26.989Z,101709.97
2023-05-11T21:10:54.959Z,101713.50
2023-05-11T21:13:22.976Z,101711.78
2023-05-11T21:15:52.288Z,101719.72
2023-05-11T21:18:20.310Z,101715.34
2023-05-11T21:20:48.312Z,101716.25
2023-05-11T21:23:16.279Z,101715.44
2023-05-11T21:25:44.245Z,101714.59
2023-05-11T21:28:12.235Z,101719.03
2023-05-11T21:30:40.234Z,101723.41
2023-05-11T21:33:09.707Z,101727.81
2023-05-11T21:35:37.646Z,101725.22
2023-05-11T21:38:05.631Z,101736.66
2023-05-11T21:40:33.549Z,101752.50
2023-05-11T21:43:01.476Z,101747.22
2023-05-11T21:45:29.873Z,101743.72
2023-05-11T21:48:01.139Z,101750.81
2023-05-11T21:50:30.871Z,101749.94
2023-05-11T21:52:59.168Z,101751.72
2023-05-11T21:55:27.123Z,101759.66
2023-05-11T21:57:55.072Z,101757.03
2023-05-11T22:00:23.740Z,101756.22
2023-05-11T22:02:51.888Z,101750.94
2023-05-11T22:05:20.085Z,101759.72
2023-05-11T22:07:49.439Z,101760.63
2023-05-11T22:10:18.820Z,101764.16
2023-05-11T22:12:47.088Z,101756.28
2023-05-11T22:15:15.004Z,101763.31
2023-05-11T22:17:42.997Z,101762.47
2023-05-11T22:20:11.372Z,101754.59
2023-05-11T22:22:39.723Z,101758.09
2023-05-11T22:25:10.124Z,101757.19
2023-05-11T22:27:38.147Z,101765.09
2023-05-11T22:30:07.524Z,101773.00
2023-05-11T22:32:36.097Z,101766.84
2023-05-11T22:35:04.141Z,101766.84
2023-05-11T22:37:32.721Z,101766.84
2023-05-11T22:40:01.151Z,101763.34
2023-05-11T22:42:32.848Z,101756.31
2023-05-11T22:45:00.784Z,101760.75
2023-05-11T22:47:28.784Z,101762.50
2023-05-11T22:49:56.907Z,101758.13
2023-05-11T22:52:24.823Z,101753.78
2023-05-11T22:54:54.660Z,101763.41
2023-05-11T22:57:24.145Z,101761.69
2023-05-11T22:59:53.565Z,101772.19
2023-05-11T23:02:23.076Z,101766.03
2023-05-11T23:04:52.006Z,101771.28
2023-05-11T23:07:20.020Z,101772.09
2023-05-11T23:09:49.786Z,101774.81
2023-05-11T23:12:18.327Z,101772.19
2023-05-11T23:14:46.230Z,101786.19
2023-05-11T23:17:15.675Z,101780.97
2023-05-11T23:19:43.748Z,101780.97
2023-05-11T23:22:11.674Z,101775.69
2023-05-11T23:24:39.592Z,101777.50
2023-05-11T23:27:07.572Z,101775.78
2023-05-11T23:29:35.830Z,101768.81
2023-05-11T23:32:04.317Z,101777.59
2023-05-11T23:34:33.778Z,101769.69
2023-05-11T23:37:01.819Z,101768.88
2023-05-11T23:39:29.800Z,101780.31
2023-05-11T23:41:57.721Z,101767.16
2023-05-11T23:44:25.883Z,101776.78
2023-05-11T23:46:53.939Z,101779.44
2023-05-11T23:49:22.526Z,101773.34
2023-05-11T23:51:52.515Z,101773.34
2023-05-11T23:54:20.524Z,101774.25
2023-05-11T23:56:48.460Z,101766.34
2023-05-11T23:59:16.433Z,101762.78
